Time;durP1;ratioP1;P1;durP2;ratioP2;P2;SDS_P1;SDS_P2;PMS_P1;PMS_P2;Temp;Humidity;BMP_temperature;BMP_pressure;BME280_temperature;BME280_humidity;BME280_pressure;Samples;Min_cycle;Max_cycle;Signal;HPM_P1;HPM_P2
2020/12/03 00:00:46;;;;;;;7.30;6.53;;;;;;;4.79;68.92;99857.19;4941735;28;96699;-71
2020/12/03 00:03:29;;;;;;;8.27;7.55;;;;;;;4.64;69.60;99849.94;4941854;28;98555;-70
2020/12/03 00:05:59;;;;;;;7.50;6.80;;;;;;;4.65;69.43;99860.22;4955756;28;98706;-71
2020/12/03 00:08:27;;;;;;;7.55;6.82;;;;;;;4.66;69.85;99861.91;4946994;28;97004;-70
2020/12/03 00:10:53;;;;;;;7.65;6.95;;;;;;;4.70;69.47;99868.66;4951565;28;96643;-70
2020/12/03 00:13:22;;;;;;;7.68;6.97;;;;;;;4.69;69.88;99859.25;4950470;28;98739;-70
2020/12/03 00:15:53;;;;;;;8.27;7.50;;;;;;;4.61;70.20;99857.78;4952588;28;98642;-69
2020/12/03 00:18:20;;;;;;;7.60;6.90;;;;;;;4.69;69.85;99860.97;4945588;28;97531;-70
2020/12/03 00:20:46;;;;;;;7.10;6.50;;;;;;;4.68;69.61;99859.25;4944388;28;98157;-70
2020/12/03 00:23:12;;;;;;;8.35;6.82;;;;;;;4.67;69.47;99855.00;4945668;28;98627;-70
2020/12/03 00:25:39;;;;;;;7.35;6.65;;;;;;;4.70;70.10;99854.91;4943805;28;98187;-70
2020/12/03 00:28:05;;;;;;;6.65;6.05;;;;;;;4.69;69.88;99851.50;4943173;28;97127;-70
2020/12/03 00:30:31;;;;;;;6.97;6.32;;;;;;;4.80;69.43;99845.97;4939712;28;97742;-70
2020/12/03 00:32:58;;;;;;;8.68;7.05;;;;;;;4.89;69.12;99839.66;4942549;28;98392;-70
2020/12/03 00:35:24;;;;;;;7.22;6.57;;;;;;;4.79;69.21;99846.00;4942224;28;98591;-70
2020/12/03 00:37:52;;;;;;;7.35;6.65;;;;;;;4.87;68.90;99839.72;4943568;28;96629;-70
2020/12/03 00:40:19;;;;;;;7.13;6.43;;;;;;;4.98;68.66;99842.78;4941516;28;96990;-70
2020/12/03 00:42:45;;;;;;;7.53;6.72;;;;;;;4.99;68.25;99835.88;4943625;28;98477;-70
2020/12/03 00:45:15;;;;;;;8.52;7.72;;;;;;;4.97;68.29;99842.84;4942617;28;98486;-70
2020/12/03 00:47:42;;;;;;;7.78;7.03;;;;;;;4.93;68.30;99836.91;4956025;28;98832;-71
2020/12/03 00:50:11;;;;;;;8.55;7.03;;;;;;;4.96;68.71;99846.31;4946040;28;97479;-71
2020/12/03 00:52:38;;;;;;;6.63;6.07;;;;;;;4.93;68.91;99843.81;4944310;28;97445;-70
2020/12/03 00:55:06;;;;;;;7.47;6.78;;;;;;;4.88;68.83;99841.38;4944908;28;100043;-70
2020/12/03 00:57:32;;;;;;;6.57;6.00;;;;;;;4.89;68.82;99843.06;4945135;28;98174;-71
2020/12/03 01:00:00;;;;;;;7.38;6.78;;;;;;;4.83;69.37;99843.28;4948668;28;97154;-71
2020/12/03 01:02:26;;;;;;;6.72;6.13;;;;;;;4.84;69.52;99841.53;4945909;28;98541;-69
2020/12/03 01:04:52;;;;;;;6.80;6.28;;;;;;;4.81;69.12;99834.75;4946763;28;98650;-68
2020/12/03 01:07:19;;;;;;;6.28;5.78;;;;;;;4.69;69.93;99833.41;4949645;28;97520;-69
2020/12/03 01:09:45;;;;;;;6.05;5.45;;;;;;;4.73;70.20;99831.56;4954694;28;96926;-69
2020/12/03 01:12:12;;;;;;;6.95;6.35;;;;;;;4.90;69.08;99816.38;4952732;28;98508;-69
2020/12/03 01:14:38;;;;;;;5.90;5.40;;;;;;;4.78;70.12;99827.09;4951904;28;98466;-68
2020/12/03 01:17:07;;;;;;;6.28;5.70;;;;;;;4.63;70.59;99827.59;4949816;28;97867;-68
2020/12/03 01:19:33;;;;;;;6.97;6.30;;;;;;;4.79;69.76;99827.94;4945729;28;96751;-69
2020/12/03 01:22:00;;;;;;;7.03;6.43;;;;;;;4.57;71.08;99815.72;4949861;28;97485;-69
2020/12/03 01:24:26;;;;;;;6.45;5.85;;;;;;;4.67;70.63;99811.94;4953657;28;98641;-69
2020/12/03 01:26:53;;;;;;;7.78;6.78;;;;;;;4.58;70.95;99796.78;4953276;28;96565;-69
2020/12/03 01:29:19;;;;;;;7.63;6.97;;;;;;;4.58;70.94;99794.19;4945244;28;100764;-68
2020/12/03 01:31:46;;;;;;;7.80;7.03;;;;;;;4.76;70.37;99789.31;4943555;28;98626;-69
2020/12/03 01:34:13;;;;;;;7.82;7.13;;;;;;;4.86;69.98;99785.53;4941815;28;98560;-70
2020/12/03 01:36:39;;;;;;;7.72;6.93;;;;;;;4.92;69.34;99786.16;4942721;28;97362;-68
2020/12/03 01:39:06;;;;;;;10.25;9.20;;;;;;;4.70;70.38;99796.38;4951143;28;97007;-69
2020/12/03 01:41:32;;;;;;;8.35;7.60;;;;;;;4.72;70.39;99798.91;4942211;28;98343;-68
2020/12/03 01:43:58;;;;;;;8.40;7.60;;;;;;;4.93;69.17;99802.50;4945485;28;98623;-69
2020/12/03 01:46:25;;;;;;;10.68;8.30;;;;;;;4.93;68.75;99802.50;4942802;28;97656;-68
2020/12/03 01:49:05;;;;;;;8.25;7.45;;;;;;;4.82;69.80;99809.75;4947427;28;96736;-69
2020/12/03 01:51:35;;;;;;;8.93;8.00;;;;;;;4.69;69.87;99812.75;4940270;28;98493;-69
2020/12/03 01:54:04;;;;;;;8.10;7.30;;;;;;;4.82;69.87;99814.94;4942094;28;98670;-69
2020/12/03 01:56:31;;;;;;;8.15;7.30;;;;;;;4.62;70.22;99821.56;4947133;28;96701;-69
2020/12/03 01:58:58;;;;;;;9.15;8.02;;;;;;;4.67;70.42;99808.53;4948268;28;96944;-69
2020/12/03 02:01:25;;;;;;;7.53;6.78;;;;;;;4.73;70.08;99801.41;4930387;28;98810;-69
2020/12/03 02:03:51;;;;;;;8.40;7.63;;;;;;;4.71;69.99;99805.81;4926995;28;99780;-69
2020/12/03 02:06:22;;;;;;;8.75;7.95;;;;;;;4.65;70.49;99802.59;4947435;28;97663;-69
2020/12/03 02:08:49;;;;;;;8.05;7.25;;;;;;;4.78;69.98;99798.69;4945652;28;98248;-69
2020/12/03 02:11:16;;;;;;;8.43;7.53;;;;;;;4.88;69.44;99783.72;4945497;28;98490;-70
2020/12/03 02:13:54;;;;;;;8.23;7.43;;;;;;;4.82;69.85;99778.78;4943752;28;98446;-69
2020/12/03 02:16:25;;;;;;;7.65;6.88;;;;;;;4.88;69.63;99768.22;4945635;28;96703;-69
2020/12/03 02:18:51;;;;;;;7.80;7.07;;;;;;;4.88;69.71;99763.91;4943818;28;96709;-70
2020/12/03 02:21:18;;;;;;;7.47;6.85;;;;;;;4.93;69.77;99753.41;4945674;28;99276;-69
2020/12/03 02:23:44;;;;;;;7.75;6.95;;;;;;;4.90;69.39;99748.34;4944560;28;97567;-69
2020/12/03 02:26:11;;;;;;;7.78;7.07;;;;;;;4.94;69.66;99740.44;4944633;28;98199;-69
2020/12/03 02:28:37;;;;;;;7.55;6.85;;;;;;;4.92;69.96;99749.16;4946145;28;96635;-69
2020/12/03 02:31:04;;;;;;;8.32;7.53;;;;;;;5.00;69.71;99740.22;4944386;28;98984;-69
2020/12/03 02:33:30;;;;;;;7.53;6.78;;;;;;;4.97;70.01;99742.09;4946847;28;99226;-69
2020/12/03 02:35:56;;;;;;;8.30;7.47;;;;;;;4.98;70.15;99739.44;4944365;28;96552;-69
2020/12/03 02:38:24;;;;;;;7.22;6.53;;;;;;;5.03;69.58;99744.47;4945404;28;99371;-68
2020/12/03 02:40:50;;;;;;;7.28;6.60;;;;;;;5.02;69.34;99752.28;4950669;28;98398;-69
2020/12/03 02:43:17;;;;;;;7.97;6.72;;;;;;;4.99;70.09;99745.44;4946224;28;98631;-69
2020/12/03 02:45:43;;;;;;;6.72;6.07;;;;;;;4.92;70.20;99749.16;4946968;28;97221;-69
2020/12/03 02:48:09;;;;;;;6.45;5.78;;;;;;;5.03;69.81;99747.03;4941288;28;97665;-69
2020/12/03 02:50:36;;;;;;;6.10;5.45;;;;;;;5.05;69.53;99749.56;4944707;28;100547;-69
2020/12/03 02:53:02;;;;;;;5.90;5.40;;;;;;;5.14;68.86;99744.91;4944623;28;98415;-69
2020/12/03 02:55:28;;;;;;;6.88;6.25;;;;;;;5.21;68.70;99751.53;4952387;28;96836;-69
2020/12/03 02:57:55;;;;;;;6.80;6.20;;;;;;;5.12;69.20;99749.31;4951185;28;96860;-69
2020/12/03 03:00:21;;;;;;;7.30;6.60;;;;;;;5.05;69.38;99746.97;4946003;28;98458;-70
2020/12/03 03:02:48;;;;;;;7.22;6.53;;;;;;;4.94;69.92;99750.78;4943921;28;98735;-70
2020/12/03 03:05:15;;;;;;;7.25;6.55;;;;;;;4.96;70.12;99746.41;4944252;28;99783;-69
2020/12/03 03:07:42;;;;;;;7.05;6.18;;;;;;;4.94;70.52;99742.19;4941446;28;97690;-69
2020/12/03 03:10:08;;;;;;;7.15;6.45;;;;;;;5.15;69.21;99736.25;4946226;28;98649;-69
2020/12/03 03:12:34;;;;;;;6.78;6.18;;;;;;;5.21;68.61;99727.44;4946332;28;98619;-69
2020/12/03 03:15:01;;;;;;;6.38;5.78;;;;;;;5.17;68.65;99726.72;4948022;28;96582;-69
2020/12/03 03:17:27;;;;;;;6.55;5.95;;;;;;;5.16;69.22;99727.59;4944224;28;97386;-69
2020/12/03 03:19:53;;;;;;;6.35;5.75;;;;;;;5.23;69.22;99723.91;4940517;28;98483;-70
2020/12/03 03:22:20;;;;;;;7.00;6.30;;;;;;;5.33;68.12;99719.25;4942663;28;100468;-69
2020/12/03 03:24:46;;;;;;;7.32;6.70;;;;;;;5.19;69.30;99719.75;4944506;28;97025;-69
2020/12/03 03:27:13;;;;;;;9.57;6.53;;;;;;;5.19;69.19;99714.59;4945885;28;97280;-69
2020/12/03 03:29:39;;;;;;;6.57;5.97;;;;;;;5.23;68.77;99715.34;4944748;28;98563;-70
2020/12/03 03:32:05;;;;;;;6.72;5.93;;;;;;;5.30;68.94;99726.28;4942154;28;98424;-69
2020/12/03 03:34:32;;;;;;;7.03;6.30;;;;;;;5.32;68.64;99717.56;4946875;28;96600;-69
2020/12/03 03:36:58;;;;;;;6.00;5.40;;;;;;;5.27;68.54;99716.88;4952724;28;96921;-69
2020/12/03 03:39:25;;;;;;;6.63;5.85;;;;;;;5.29;68.48;99715.09;4949228;28;98607;-70
2020/12/03 03:41:54;;;;;;;6.72;6.00;;;;;;;5.26;68.58;99710.88;4943251;28;100055;-69
2020/12/03 03:44:20;;;;;;;6.03;5.47;;;;;;;5.39;67.94;99707.84;4943588;28;98376;-70
2020/12/03 03:46:48;;;;;;;5.78;5.15;;;;;;;5.40;67.99;99700.03;4944184;28;97443;-69
2020/12/03 03:49:14;;;;;;;7.70;6.20;;;;;;;5.40;67.97;99700.03;4942318;28;98584;-70
2020/12/03 03:51:41;;;;;;;6.30;5.70;;;;;;;5.45;67.70;99703.28;4944071;28;98606;-70
2020/12/03 03:54:07;;;;;;;6.20;5.57;;;;;;;5.46;67.82;99701.53;4957919;28;98001;-70
2020/12/03 03:56:33;;;;;;;5.97;5.38;;;;;;;5.49;67.39;99698.84;4945533;28;96650;-69
2020/12/03 03:59:00;;;;;;;5.85;5.25;;;;;;;5.44;67.77;99688.69;4944181;28;98418;-70
2020/12/03 04:01:26;;;;;;;7.03;6.32;;;;;;;5.44;67.95;99687.84;4945955;28;98466;-70
2020/12/03 04:03:53;;;;;;;6.95;6.25;;;;;;;5.46;67.83;99686.88;4944377;28;97367;-70
2020/12/03 04:06:19;;;;;;;6.57;5.97;;;;;;;5.49;67.88;99680.75;4944642;28;96756;-70
2020/12/03 04:08:46;;;;;;;5.50;4.65;;;;;;;5.49;67.45;99685.94;4941413;28;99998;-70
2020/12/03 04:11:15;;;;;;;6.60;5.70;;;;;;;5.49;67.74;99683.34;4943497;28;98385;-70
2020/12/03 04:13:42;;;;;;;5.00;4.53;;;;;;;5.52;67.67;99685.81;4944096;28;97410;-70
2020/12/03 04:16:10;;;;;;;5.75;5.25;;;;;;;5.55;67.76;99683.09;4940134;28;96873;-71
2020/12/03 04:18:37;;;;;;;6.38;5.78;;;;;;;5.47;67.94;99685.13;4946058;28;97326;-71
2020/12/03 04:21:05;;;;;;;6.90;5.57;;;;;;;5.38;68.95;99690.63;4945880;28;98778;-70
2020/12/03 04:23:32;;;;;;;9.63;7.57;;;;;;;5.44;68.36;99695.59;4944280;28;100401;-71
2020/12/03 04:25:58;;;;;;;10.30;7.47;;;;;;;5.37;68.23;99694.13;4946664;28;96845;-69
2020/12/03 04:28:25;;;;;;;7.95;6.93;;;;;;;5.38;68.22;99696.69;4948543;28;98740;-70
2020/12/03 04:30:51;;;;;;;7.55;6.43;;;;;;;5.52;67.80;99701.31;4949467;28;98424;-69
2020/12/03 04:33:18;;;;;;;7.32;6.60;;;;;;;5.53;67.66;99693.50;4945559;28;96883;-69
2020/12/03 04:35:44;;;;;;;9.57;7.40;;;;;;;5.51;67.87;99694.47;4946585;28;96833;-69
2020/12/03 04:38:11;;;;;;;7.20;6.03;;;;;;;5.50;67.66;99691.03;4943793;28;98577;-69
2020/12/03 04:40:39;;;;;;;8.07;6.20;;;;;;;5.45;68.06;99679.19;4949201;28;98748;-69
2020/12/03 04:43:15;;;;;;;6.43;5.82;;;;;;;5.48;68.01;99684.22;4951795;28;99601;-70
2020/12/03 04:45:44;;;;;;;5.70;5.10;;;;;;;5.52;67.48;99673.72;4932081;28;96844;-70
2020/12/03 04:48:24;;;;;;;4.72;4.20;;;;;;;5.55;67.18;99677.09;4938198;28;98514;-69
2020/12/03 04:51:00;;;;;;;6.10;5.32;;;;;;;5.51;67.68;99674.63;4947309;28;100951;-70
2020/12/03 04:53:37;;;;;;;6.18;5.25;;;;;;;5.33;69.62;99674.50;4956123;28;96512;-70
2020/12/03 04:56:07;;;;;;;7.50;6.80;;;;;;;4.88;70.14;99675.25;4964528;28;96565;-68
2020/12/03 04:58:50;;;;;;;6.32;5.70;;;;;;;4.82;70.60;99672.91;4954178;28;97244;-69
2020/12/03 05:02:07;;;;;;;6.28;5.68;;;;;;;4.91;70.76;99673.41;4937861;28;98418;-68
2020/12/03 05:05:03;;;;;;;6.53;5.90;;;;;;;5.14;69.25;99687.22;4950553;28;97066;-69
2020/12/03 05:07:29;;;;;;;7.30;5.13;;;;;;;5.31;68.68;99686.59;4956240;28;96731;-75
2020/12/03 05:10:17;;;;;;;6.18;5.57;;;;;;;5.10;69.27;99680.50;4955819;28;98884;-75
2020/12/03 05:12:43;;;;;;;8.63;5.60;;;;;;;5.05;70.25;99677.22;4951014;28;98459;-74
2020/12/03 05:15:32;;;;;;;6.72;6.00;;;;;;;5.11;69.62;99667.50;4956420;28;96772;-74
2020/12/03 05:18:36;;;;;;;6.10;5.53;;;;;;;5.17;69.64;99672.47;4963703;28;96645;-70
2020/12/03 05:21:03;;;;;;;6.88;6.18;;;;;;;5.10;69.75;99670.16;4944031;28;98423;-69
2020/12/03 05:23:31;;;;;;;7.53;6.82;;;;;;;5.08;69.68;99671.97;4954540;28;98465;-70
2020/12/03 05:25:58;;;;;;;9.02;7.50;;;;;;;5.13;69.71;99681.22;4955358;28;96724;-71
2020/12/03 05:28:55;;;;;;;10.32;8.30;;;;;;;5.12;69.06;99687.31;4955552;28;97670;-70
2020/12/03 05:31:21;;;;;;;9.75;8.30;;;;;;;5.09;69.20;99692.56;4968718;28;98694;-70
2020/12/03 05:33:48;;;;;;;9.15;8.25;;;;;;;4.96;69.78;99699.09;4955386;28;98576;-70
2020/12/03 05:36:28;;;;;;;9.15;8.10;;;;;;;4.77;70.75;99700.63;4947146;28;96634;-71
2020/12/03 05:38:55;;;;;;;8.15;7.38;;;;;;;4.90;69.70;99705.31;4948408;28;98226;-70
2020/12/03 05:41:28;;;;;;;9.25;8.23;;;;;;;4.88;69.92;99696.75;4953687;28;98676;-70
2020/12/03 05:43:54;;;;;;;8.88;7.97;;;;;;;4.76;70.49;99696.34;4954715;28;98438;-70
2020/12/03 05:46:22;;;;;;;18.13;8.50;;;;;;;4.80;70.12;99695.38;4964312;28;96748;-70
2020/12/03 05:49:02;;;;;;;8.57;7.60;;;;;;;4.79;69.98;99688.50;4960270;28;96765;-71
2020/12/03 05:51:31;;;;;;;8.23;7.32;;;;;;;4.90;69.07;99686.38;4948770;28;98498;-71
2020/12/03 05:54:03;;;;;;;9.48;8.55;;;;;;;4.84;69.46;99684.84;4962983;28;97455;-70
2020/12/03 05:56:31;;;;;;;8.55;7.43;;;;;;;4.85;69.51;99683.13;4962497;28;96564;-71
2020/12/03 05:59:18;;;;;;;7.82;7.05;;;;;;;4.97;68.53;99690.44;4954683;28;98092;-72
2020/12/03 06:01:57;;;;;;;8.75;7.25;;;;;;;4.91;68.66;99690.66;4952640;28;98412;-70
2020/12/03 06:04:37;;;;;;;9.23;8.27;;;;;;;4.85;69.35;99686.56;4942413;28;98579;-69
2020/12/03 06:07:22;;;;;;;9.98;8.48;;;;;;;4.81;68.91;99686.72;4942423;28;96601;-70
2020/12/03 06:10:12;;;;;;;8.30;7.50;;;;;;;4.89;68.82;99677.78;4958123;28;97009;-71
2020/12/03 06:13:00;;;;;;;8.68;7.35;;;;;;;4.95;67.90;99687.03;4968170;28;98426;-69
2020/12/03 06:16:09;;;;;;;9.13;8.05;;;;;;;5.05;67.78;99693.56;4956971;28;98635;-70
2020/12/03 06:18:50;;;;;;;10.65;8.57;;;;;;;5.10;68.07;99712.34;4946347;28;96834;-70
2020/12/03 06:21:29;;;;;;;9.88;8.88;;;;;;;5.04;68.14;99724.63;4952745;28;96925;-68
2020/12/03 06:24:01;;;;;;;10.80;9.50;;;;;;;4.83;69.32;99733.97;4953431;28;98827;-71
2020/12/03 06:26:45;;;;;;;8.70;7.85;;;;;;;4.98;68.67;99734.28;4955027;28;98556;-69
2020/12/03 06:29:39;;;;;;;8.23;7.43;;;;;;;5.01;68.24;99738.50;4956541;28;96555;-69
2020/12/03 06:32:39;;;;;;;7.95;6.95;;;;;;;5.04;68.20;99735.81;4952807;28;96385;-70
2020/12/03 06:35:27;;;;;;;9.05;8.07;;;;;;;4.94;68.68;99735.28;4955319;28;98777;-69
2020/12/03 06:38:12;;;;;;;10.35;8.48;;;;;;;4.85;69.18;99745.13;4941786;28;98612;-69
2020/12/03 06:40:41;;;;;;;9.32;7.93;;;;;;;4.86;69.60;99744.22;4954723;28;96720;-69
2020/12/03 06:43:16;;;;;;;10.40;9.30;;;;;;;4.75;70.96;99739.41;4968134;28;96743;-68
2020/12/03 06:45:43;;;;;;;18.50;14.02;;;;;;;4.60;72.02;99727.88;4952015;28;98460;-69
2020/12/03 06:48:37;;;;;;;18.50;13.88;;;;;;;4.69;71.95;99737.03;4954062;28;98681;-69
2020/12/03 06:51:10;;;;;;;20.42;16.92;;;;;;;4.50;72.51;99731.66;4953782;28;96447;-73
2020/12/03 06:53:45;;;;;;;19.02;15.63;;;;;;;4.51;73.31;99740.22;4937430;28;96669;-71
2020/12/03 06:56:33;;;;;;;18.92;14.50;;;;;;;4.60;73.12;99745.94;4949334;28;98437;-74
2020/12/03 06:59:18;;;;;;;16.33;14.50;;;;;;;4.62;72.71;99751.88;4945536;28;98542;-73
2020/12/03 07:02:11;;;;;;;16.52;14.00;;;;;;;4.79;72.18;99753.03;4952047;28;96544;-70
2020/12/03 07:04:43;;;;;;;13.60;12.23;;;;;;;4.91;71.50;99755.22;4949329;28;96737;-71
2020/12/03 07:07:41;;;;;;;13.93;11.95;;;;;;;4.87;72.19;99746.72;4949322;28;98414;-73
2020/12/03 07:10:32;;;;;;;13.05;11.02;;;;;;;4.92;71.05;99749.16;4950361;28;98556;-74
2020/12/03 07:13:11;;;;;;;10.18;9.15;;;;;;;4.91;70.44;99737.16;4952400;28;97007;-73
2020/12/03 07:16:07;;;;;;;11.57;10.38;;;;;;;4.95;71.32;99738.69;4953299;28;96863;-72
2020/12/03 07:19:18;;;;;;;12.25;10.65;;;;;;;4.95;71.41;99754.19;4952490;28;98554;-72
2020/12/03 07:22:24;;;;;;;11.38;10.20;;;;;;;4.93;72.21;99756.84;4961830;28;99089;-72
2020/12/03 07:24:51;;;;;;;12.77;11.40;;;;;;;4.99;72.36;99761.78;4960010;28;97380;-72
2020/12/03 07:27:53;;;;;;;14.43;12.90;;;;;;;5.00;72.60;99762.63;4939490;28;96771;-72
2020/12/03 07:30:39;;;;;;;12.60;10.98;;;;;;;5.03;72.05;99759.13;4953767;28;98449;-73
2020/12/03 07:33:15;;;;;;;15.88;12.13;;;;;;;5.22;71.42;99752.41;4959349;28;98949;-72
2020/12/03 07:36:01;;;;;;;10.70;9.57;;;;;;;5.12;70.51;99751.91;4957654;28;97211;-72
2020/12/03 07:51:31;;;;;;;13.23;10.82;;;;;;;5.23;70.76;99754.09;5074511;27;969281;-72
2020/12/03 07:54:17;;;;;;;13.70;12.02;;;;;;;5.36;70.06;99757.91;5063493;27;97310;-72
2020/12/03 07:56:46;;;;;;;16.60;10.32;;;;;;;5.36;70.50;99755.31;5083780;27;98770;-73
2020/12/03 07:59:33;;;;;;;13.40;10.82;;;;;;;5.43;70.59;99755.94;5089482;27;98994;-73
2020/12/03 08:02:00;;;;;;;19.65;12.15;;;;;;;5.47;70.71;99749.75;5081625;27;96704;-75
2020/12/03 08:04:34;;;;;;;16.75;10.93;;;;;;;5.54;70.74;99753.81;5090256;27;97196;-73
2020/12/03 08:07:03;;;;;;;16.27;12.50;;;;;;;5.64;70.28;99754.28;5086871;27;98635;-72
2020/12/03 08:09:41;;;;;;;14.60;11.85;;;;;;;5.60;70.09;99758.75;5081165;27;98754;-74
2020/12/03 08:12:14;;;;;;;16.38;12.18;;;;;;;5.56;70.48;99761.50;5078671;27;96619;-72
2020/12/03 08:14:44;;;;;;;13.17;11.57;;;;;;;5.59;70.24;99762.22;5069563;27;96713;-71
2020/12/03 08:17:16;;;;;;;16.20;11.98;;;;;;;5.56;70.53;99767.53;5078713;27;98789;-72
2020/12/03 08:20:06;;;;;;;13.05;11.63;;;;;;;5.59;71.02;99759.63;4972780;27;98729;-71
2020/12/03 08:22:43;;;;;;;12.20;10.85;;;;;;;5.76;70.40;99759.88;4993309;28;96776;-72
2020/12/03 08:25:28;;;;;;;14.20;12.15;;;;;;;5.91;69.89;99758.47;4983458;27;97304;-73
2020/12/03 08:28:04;;;;;;;13.90;12.15;;;;;;;5.89;69.75;99767.16;5010234;28;98533;-73
2020/12/03 08:30:50;;;;;;;18.45;13.25;;;;;;;5.96;69.59;99759.09;5014843;28;98551;-73
2020/12/03 08:33:23;;;;;;;10.98;9.88;;;;;;;5.99;69.38;99761.59;5012509;28;96800;-72
2020/12/03 08:35:51;;;;;;;12.73;11.20;;;;;;;6.11;69.17;99757.69;5014326;27;100477;-72
2020/12/03 08:38:24;;;;;;;12.73;11.43;;;;;;;6.22;68.48;99765.00;5009798;27;98417;-72
2020/12/03 08:40:53;;;;;;;14.82;11.40;;;;;;;6.24;68.92;99758.88;5010598;28;98718;-72
2020/12/03 08:43:19;;;;;;;13.60;12.25;;;;;;;6.36;68.13;99754.13;4970860;28;98070;-74
2020/12/03 08:45:51;;;;;;;15.57;11.32;;;;;;;6.45;67.89;99746.00;4971400;28;99289;-70
2020/12/03 08:48:23;;;;;;;12.27;10.45;;;;;;;6.51;67.88;99745.72;5002849;28;98472;-71
2020/12/03 08:50:57;;;;;;;13.40;10.43;;;;;;;6.36;68.14;99752.38;4981552;28;98488;-74
2020/12/03 08:53:25;;;;;;;15.43;11.63;;;;;;;6.30;68.95;99760.38;4977538;28;96561;-72
2020/12/03 08:55:52;;;;;;;13.05;11.00;;;;;;;6.35;68.42;99765.38;4997304;28;96923;-72
2020/12/03 08:58:20;;;;;;;11.40;10.27;;;;;;;6.55;67.27;99770.56;4962481;28;98630;-72
2020/12/03 09:00:46;;;;;;;12.88;10.75;;;;;;;6.63;67.29;99768.53;4978922;28;97551;-72
2020/12/03 09:03:15;;;;;;;13.27;11.38;;;;;;;6.59;67.62;99761.78;4961943;28;97839;-73
2020/12/03 09:05:42;;;;;;;14.88;11.13;;;;;;;6.53;67.35;99777.56;4994675;28;98536;-71
2020/12/03 09:08:17;;;;;;;21.50;12.30;;;;;;;6.57;67.55;99776.56;4972876;28;100206;-73
2020/12/03 09:10:45;;;;;;;16.23;14.52;;;;;;;6.32;68.43;99784.47;4969331;28;98640;-73
2020/12/03 09:13:15;;;;;;;17.98;14.65;;;;;;;6.27;68.57;99779.47;4977662;28;96700;-69
2020/12/03 09:15:41;;;;;;;16.60;14.23;;;;;;;6.46;66.25;99782.16;4974918;28;97986;-70
2020/12/03 09:18:08;;;;;;;16.42;14.57;;;;;;;6.34;66.88;99772.31;4963562;28;98653;-71
2020/12/03 09:20:40;;;;;;;15.05;13.55;;;;;;;6.37;67.26;99773.91;4995534;28;98518;-69
2020/12/03 09:23:12;;;;;;;16.48;14.45;;;;;;;6.41;67.55;99780.66;4980070;28;97220;-70
2020/12/03 09:25:38;;;;;;;16.45;14.73;;;;;;;6.48;66.96;99780.34;4980325;28;96703;-70
2020/12/03 09:28:04;;;;;;;18.55;13.93;;;;;;;6.48;65.65;99779.50;4994805;28;98496;-69
2020/12/03 09:30:31;;;;;;;15.40;13.57;;;;;;;6.47;66.68;99777.81;4962097;28;98483;-70
2020/12/03 09:33:00;;;;;;;17.80;16.02;;;;;;;6.53;66.14;99777.56;4981298;28;96998;-70
2020/12/03 09:35:28;;;;;;;22.48;16.30;;;;;;;6.21;67.96;99777.13;4979372;28;96693;-68
2020/12/03 09:37:56;;;;;;;16.90;15.13;;;;;;;5.92;69.83;99775.69;4975007;28;98494;-68
2020/12/03 09:40:22;;;;;;;18.88;15.07;;;;;;;6.22;68.14;99772.78;4985443;28;98526;-69
2020/12/03 09:42:49;;;;;;;19.35;15.98;;;;;;;6.15;68.11;99769.59;4983038;28;97278;-72
2020/12/03 09:45:23;;;;;;;17.90;15.80;;;;;;;6.18;68.27;99766.03;4961113;28;99225;-68
2020/12/03 09:47:50;;;;;;;15.27;13.38;;;;;;;6.15;68.18;99767.00;4989361;28;98861;-71
2020/12/03 09:50:20;;;;;;;17.40;14.48;;;;;;;6.21;68.96;99766.75;4974672;28;99862;-71
2020/12/03 09:52:47;;;;;;;16.35;13.90;;;;;;;6.45;67.53;99769.28;4988880;28;98096;-70
2020/12/03 09:55:15;;;;;;;18.02;13.13;;;;;;;6.53;66.92;99768.06;4959482;28;97526;-67
2020/12/03 09:57:56;;;;;;;14.43;12.90;;;;;;;6.55;67.25;99762.81;4987228;28;99241;-69
2020/12/03 10:00:26;;;;;;;16.60;14.82;;;;;;;6.52;68.05;99753.44;4986052;28;99193;-70
2020/12/03 10:03:02;;;;;;;15.65;13.52;;;;;;;6.49;68.19;99752.69;4966760;28;97172;-69
2020/12/03 10:06:07;;;;;;;16.70;14.88;;;;;;;6.68;67.35;99750.22;4985555;28;97358;-72
2020/12/03 10:08:55;;;;;;;15.50;13.52;;;;;;;6.65;66.29;99740.78;4987125;28;98706;-70
2020/12/03 10:11:36;;;;;;;22.42;16.98;;;;;;;6.56;66.57;99730.84;4974114;28;98509;-70
2020/12/03 10:14:33;;;;;;;19.00;16.00;;;;;;;6.61;66.15;99736.69;4985657;28;98726;-71
2020/12/03 10:17:04;;;;;;;20.48;17.50;;;;;;;6.60;66.09;99726.38;4983444;28;99195;-70
2020/12/03 10:19:40;;;;;;;20.50;18.33;;;;;;;6.59;66.25;99720.34;4983266;28;99703;-69
2020/12/03 10:22:10;;;;;;;42.65;30.25;;;;;;;6.45;66.98;99720.09;4982087;28;98598;-69
2020/12/03 10:24:39;;;;;;;57.35;39.78;;;;;;;6.37;67.62;99719.56;4958813;28;97458;-69
2020/12/03 10:27:18;;;;;;;39.92;26.50;;;;;;;6.47;67.50;99715.69;4962805;28;98070;-70
2020/12/03 10:30:07;;;;;;;22.27;18.17;;;;;;;6.50;67.63;99720.75;4990543;28;98714;-69
2020/12/03 10:32:36;;;;;;;20.65;18.25;;;;;;;6.56;68.18;99717.91;4979068;28;98498;-68
2020/12/03 10:35:03;;;;;;;19.10;16.95;;;;;;;6.40;69.35;99717.69;4956181;28;98363;-71
2020/12/03 10:37:33;;;;;;;20.40;18.20;;;;;;;6.51;68.89;99712.06;4972796;28;98512;-70
2020/12/03 10:40:08;;;;;;;19.92;16.73;;;;;;;6.56;69.63;99716.16;4981968;28;98559;-73
2020/12/03 10:42:38;;;;;;;36.67;32.75;;;;;;;6.42;69.68;99717.63;4973187;28;98599;-72
2020/12/03 10:45:13;;;;;;;47.75;42.60;;;;;;;6.42;69.61;99718.47;4960706;28;97544;-72
2020/12/03 10:47:52;;;;;;;43.33;37.80;;;;;;;6.54;67.84;99709.34;4972460;28;97701;-71
2020/12/03 10:50:19;;;;;;;36.92;33.15;;;;;;;6.53;67.51;99703.31;4981290;28;98626;-72
2020/12/03 10:52:46;;;;;;;26.83;23.92;;;;;;;6.34;67.67;99697.25;4982721;28;98529;-70
2020/12/03 10:55:16;;;;;;;30.00;26.77;;;;;;;6.12;68.98;99693.81;4990040;28;97305;-71
2020/12/03 10:57:48;;;;;;;28.20;25.10;;;;;;;6.38;67.93;99682.41;4987671;28;96885;-69
2020/12/03 11:00:14;;;;;;;28.55;23.17;;;;;;;6.41;68.02;99690.06;4968314;28;99077;-70
2020/12/03 11:02:42;;;;;;;28.63;22.10;;;;;;;6.54;67.84;99691.22;4957860;28;98792;-70
2020/12/03 11:05:09;;;;;;;31.33;27.70;;;;;;;6.17;68.62;99691.88;4981141;28;97332;-69
2020/12/03 11:07:35;;;;;;;31.50;25.35;;;;;;;6.24;69.30;99698.53;4987588;28;98154;-68
2020/12/03 11:10:02;;;;;;;25.00;21.50;;;;;;;6.24;68.18;99689.00;4965587;28;98559;-69
2020/12/03 11:12:29;;;;;;;26.83;21.40;;;;;;;6.43;67.35;99689.06;4964003;28;98567;-71
2020/12/03 11:15:08;;;;;;;24.83;20.23;;;;;;;6.54;67.22;99688.63;4964939;28;97336;-69
2020/12/03 11:18:01;;;;;;;19.98;17.13;;;;;;;6.50;67.61;99689.69;4969586;28;97102;-72
2020/12/03 11:20:54;;;;;;;16.42;14.15;;;;;;;6.61;67.13;99679.69;4975458;28;100739;-71
2020/12/03 11:23:21;;;;;;;18.52;13.20;;;;;;;6.58;67.33;99666.88;4976481;28;98527;-71
2020/12/03 11:25:50;;;;;;;16.35;14.65;;;;;;;6.52;67.74;99667.97;4984836;28;96732;-71
2020/12/03 11:28:26;;;;;;;17.73;15.23;;;;;;;6.50;68.87;99668.97;4967382;28;98374;-72
2020/12/03 11:30:55;;;;;;;16.90;13.57;;;;;;;6.57;68.05;99670.38;4990164;28;98716;-72
2020/12/03 11:33:26;;;;;;;16.17;14.50;;;;;;;6.61;68.80;99669.34;4982949;28;99331;-71
2020/12/03 11:36:09;;;;;;;15.50;12.90;;;;;;;6.68;68.26;99669.91;4984565;28;100455;-72
2020/12/03 11:38:38;;;;;;;14.52;12.40;;;;;;;6.76;67.47;99663.47;4985369;28;98606;-73
2020/12/03 11:41:09;;;;;;;20.33;15.90;;;;;;;6.74;67.41;99673.06;4972004;28;98534;-71
2020/12/03 11:48:55;;;;;;;17.48;14.00;;;;;;;6.72;66.39;99664.53;4983763;28;96871;-70
2020/12/03 11:51:31;;;;;;;24.02;17.95;;;;;;;6.69;68.45;99666.41;4984206;28;98530;-73
2020/12/03 11:54:03;;;;;;;20.20;15.77;;;;;;;6.93;67.05;99667.09;4979896;28;98477;-71
2020/12/03 11:56:29;;;;;;;18.02;14.88;;;;;;;6.67;66.27;99655.28;4981944;28;97319;-73
2020/12/03 11:59:18;;;;;;;18.85;14.05;;;;;;;6.77;67.01;99652.22;4976670;28;96790;-72
2020/12/03 12:01:54;;;;;;;20.05;14.65;;;;;;;6.92;67.07;99647.25;4982445;28;98535;-70
2020/12/03 12:04:26;;;;;;;21.55;17.60;;;;;;;6.98;67.31;99641.84;4980415;28;98564;-69
2020/12/03 12:10:20;;;;;;;21.33;13.95;;;;;;;6.88;67.08;99643.16;4981138;28;97642;-70
2020/12/03 12:12:24;;;;;;;43.10;15.30;;;;;;;7.06;65.61;99639.72;4973567;28;98783;-70
2020/12/03 12:14:51;;;;;;;21.88;19.17;;;;;;;7.15;65.82;99631.53;4980865;28;98843;-71
2020/12/03 12:17:19;;;;;;;19.77;16.17;;;;;;;7.02;65.86;99632.97;4980767;28;99788;-74
2020/12/03 12:19:47;;;;;;;23.80;17.38;;;;;;;6.61;66.04;99630.50;4989416;28;96703;-73